Time;durP1;ratioP1;P1;durP2;ratioP2;P2;SDS_P1;SDS_P2;PMS_P1;PMS_P2;Temp;Humidity;BMP_temperature;BMP_pressure;BME280_temperature;BME280_humidity;BME280_pressure;Samples;Min_cycle;Max_cycle;Signal;HPM_P1;HPM_P2
2021/04/01 00:00:24;;;;;;;;;;;18.10;30.70;;;;;;5053609;28;74966;-67
2021/04/01 00:02:51;;;;;;;;;;;18.10;30.70;;;;;;5051852;28;76432;-66
2021/04/01 00:05:17;;;;;;;;;;;18.00;30.80;;;;;;5051434;28;76184;-68
2021/04/01 00:07:43;;;;;;;;;;;18.00;30.60;;;;;;5051713;28;77983;-68
2021/04/01 00:10:10;;;;;;;;;;;18.00;30.50;;;;;;5051717;28;76946;-68
2021/04/01 00:12:36;;;;;;;;;;;18.00;30.60;;;;;;5053781;28;75178;-68
2021/04/01 00:15:03;;;;;;;;;;;17.90;30.70;;;;;;5051461;28;75338;-67
2021/04/01 00:17:29;;;;;;;;;;;17.90;30.90;;;;;;5053289;28;75919;-68
2021/04/01 00:19:54;;;;;;;;;;;17.90;30.70;;;;;;5053149;28;75341;-67
2021/04/01 00:22:20;;;;;;;;;;;17.90;30.90;;;;;;5052881;28;74516;-68
2021/04/01 00:24:46;;;;;;;;;;;17.90;31.10;;;;;;5051849;27;74932;-68
2021/04/01 00:27:11;;;;;;;;;;;17.90;31.00;;;;;;5052875;28;75003;-68
2021/04/01 00:29:37;;;;;;;;;;;17.90;31.10;;;;;;5052950;28;75223;-68
2021/04/01 00:32:03;;;;;;;;;;;17.90;31.30;;;;;;5053072;28;75080;-69
2021/04/01 00:34:28;;;;;;;;;;;17.90;31.40;;;;;;5051605;28;75691;-69
2021/04/01 00:36:54;;;;;;;;;;;17.90;31.40;;;;;;5053433;28;74368;-68
2021/04/01 00:39:20;;;;;;;;;;;17.80;31.50;;;;;;5050953;28;77159;-67
2021/04/01 00:41:45;;;;;;;;;;;17.80;31.50;;;;;;5052667;28;75114;-69
2021/04/01 00:44:13;;;;;;;;;;;17.80;31.70;;;;;;5052427;28;74958;-68
2021/04/01 00:46:38;;;;;;;;;;;17.70;32.00;;;;;;5052737;28;75208;-68
2021/04/01 00:49:04;;;;;;;;;;;17.70;32.10;;;;;;5052472;28;75614;-68
2021/04/01 00:51:30;;;;;;;;;;;17.70;32.30;;;;;;5051192;28;78158;-68
2021/04/01 00:53:55;;;;;;;;;;;17.60;32.60;;;;;;5050914;28;76116;-69
2021/04/01 00:56:23;;;;;;;;;;;17.60;32.70;;;;;;5050959;28;78075;-69
2021/04/01 00:58:48;;;;;;;;;;;17.60;32.80;;;;;;5052154;27;76018;-69
2021/04/01 01:03:43;;;;;;;;;;;17.50;32.90;;;;;;5052003;28;75108;-68
2021/04/01 01:06:08;;;;;;;;;;;17.50;33.00;;;;;;5052090;28;74952;-69
2021/04/01 01:08:34;;;;;;;;;;;17.50;33.10;;;;;;5052039;28;75123;-68
2021/04/01 01:10:59;;;;;;;;;;;17.50;33.00;;;;;;5050755;28;77684;-68
2021/04/01 01:13:25;;;;;;;;;;;17.40;33.20;;;;;;5052074;28;75191;-69
2021/04/01 01:15:51;;;;;;;;;;;17.40;33.20;;;;;;5052626;28;75515;-69
2021/04/01 01:18:16;;;;;;;;;;;17.30;33.30;;;;;;5052026;28;75662;-70
2021/04/01 01:20:43;;;;;;;;;;;17.20;33.20;;;;;;5051253;28;77009;-67
2021/04/01 01:23:09;;;;;;;;;;;17.20;33.40;;;;;;5052526;28;74353;-67
2021/04/01 01:25:35;;;;;;;;;;;17.20;33.40;;;;;;5051836;28;75801;-69
2021/04/01 01:28:01;;;;;;;;;;;17.10;33.40;;;;;;5050731;28;76490;-70
2021/04/01 01:30:27;;;;;;;;;;;17.00;33.30;;;;;;5051702;28;75193;-69
2021/04/01 01:33:02;;;;;;;;;;;17.00;33.40;;;;;;5052199;28;75671;-69
2021/04/01 01:35:30;;;;;;;;;;;17.00;33.30;;;;;;5053089;27;75235;-69
2021/04/01 01:38:00;;;;;;;;;;;17.00;33.40;;;;;;5055881;28;74468;-68
2021/04/01 01:40:27;;;;;;;;;;;16.90;33.30;;;;;;5055610;28;75267;-67
2021/04/01 01:42:54;;;;;;;;;;;16.90;33.50;;;;;;5053745;28;75376;-70
2021/04/01 01:45:20;;;;;;;;;;;16.90;33.40;;;;;;5055538;28;75806;-69
2021/04/01 01:47:46;;;;;;;;;;;16.90;33.60;;;;;;5055706;28;75383;-71
2021/04/01 01:50:13;;;;;;;;;;;16.90;33.50;;;;;;5055732;28;75264;-68
2021/04/01 01:52:39;;;;;;;;;;;16.90;33.60;;;;;;5054251;28;76330;-67
2021/04/01 01:55:06;;;;;;;;;;;16.80;33.50;;;;;;5056009;28;74669;-68
2021/04/01 01:57:32;;;;;;;;;;;16.70;33.60;;;;;;5055804;28;75045;-69
2021/04/01 01:59:58;;;;;;;;;;;16.70;33.70;;;;;;5055283;28;74380;-68
2021/04/01 02:02:24;;;;;;;;;;;16.70;33.70;;;;;;5053832;28;77962;-69
2021/04/01 02:04:49;;;;;;;;;;;16.60;34.00;;;;;;5055241;28;75193;-69
2021/04/01 02:07:15;;;;;;;;;;;16.60;34.20;;;;;;5055037;27;75787;-68
2021/04/01 02:09:47;;;;;;;;;;;16.60;34.20;;;;;;5055113;28;74991;-68
2021/04/01 02:12:14;;;;;;;;;;;16.50;33.90;;;;;;5054946;28;76788;-69
2021/04/01 02:14:40;;;;;;;;;;;16.40;34.10;;;;;;5055434;28;75576;-68
2021/04/01 02:17:06;;;;;;;;;;;16.40;34.20;;;;;;5055100;28;75229;-69
2021/04/01 02:19:32;;;;;;;;;;;16.40;34.20;;;;;;5055180;28;75251;-68
2021/04/01 02:21:57;;;;;;;;;;;16.40;34.20;;;;;;5055073;28;75119;-69
2021/04/01 02:24:23;;;;;;;;;;;16.40;34.10;;;;;;5055082;28;75363;-69
2021/04/01 02:26:53;;;;;;;;;;;16.40;34.10;;;;;;5055809;28;74490;-67
2021/04/01 02:29:18;;;;;;;;;;;16.40;34.20;;;;;;5054785;28;76483;-69
2021/04/01 02:31:44;;;;;;;;;;;16.40;34.20;;;;;;5054707;28;76442;-69
2021/04/01 02:34:09;;;;;;;;;;;16.30;34.20;;;;;;5054962;28;74939;-68
2021/04/01 02:36:35;;;;;;;;;;;16.30;34.10;;;;;;5053220;28;76116;-68
2021/04/01 02:39:01;;;;;;;;;;;16.20;34.20;;;;;;5054509;28;76255;-68
2021/04/01 02:41:26;;;;;;;;;;;16.20;34.10;;;;;;5054505;28;76425;-68
2021/04/01 02:43:52;;;;;;;;;;;16.20;34.20;;;;;;5053471;28;76993;-66
2021/04/01 02:46:17;;;;;;;;;;;16.20;34.20;;;;;;5053582;28;76226;-68
2021/04/01 02:48:43;;;;;;;;;;;16.20;34.10;;;;;;5052098;28;78077;-67
2021/04/01 02:51:08;;;;;;;;;;;16.20;34.20;;;;;;5054342;28;75230;-68
2021/04/01 02:53:34;;;;;;;;;;;16.20;34.20;;;;;;5055209;28;74487;-67
2021/04/01 02:56:00;;;;;;;;;;;16.20;34.40;;;;;;5054659;28;75648;-68
2021/04/01 02:58:26;;;;;;;;;;;16.20;34.40;;;;;;5053071;28;76520;-68
2021/04/01 03:00:52;;;;;;;;;;;16.20;34.10;;;;;;5054510;28;74980;-68
2021/04/01 03:03:25;;;;;;;;;;;16.10;34.00;;;;;;5052143;28;77070;-67
2021/04/01 03:05:51;;;;;;;;;;;16.10;34.00;;;;;;5054394;28;75723;-67
2021/04/01 03:08:16;;;;;;;;;;;16.10;34.20;;;;;;5054228;28;75016;-67
2021/04/01 03:10:42;;;;;;;;;;;16.00;34.20;;;;;;5052761;28;77648;-67
2021/04/01 03:13:08;;;;;;;;;;;15.90;34.30;;;;;;5086905;27;76482;-67
2021/04/01 03:15:34;;;;;;;;;;;16.00;34.20;;;;;;5054814;28;74512;-68
2021/04/01 03:17:59;;;;;;;;;;;15.90;34.30;;;;;;5052652;28;77985;-67
2021/04/01 03:20:25;;;;;;;;;;;15.90;34.40;;;;;;5053921;28;75163;-68
2021/04/01 03:22:50;;;;;;;;;;;15.90;34.60;;;;;;5052529;28;75553;-67
2021/04/01 03:25:16;;;;;;;;;;;15.90;34.30;;;;;;5054212;28;75132;-68
2021/04/01 03:27:42;;;;;;;;;;;15.90;34.40;;;;;;5054388;28;74447;-68
2021/04/01 03:30:11;;;;;;;;;;;15.90;34.50;;;;;;5053728;28;74625;-68
2021/04/01 03:32:38;;;;;;;;;;;15.90;34.60;;;;;;5054164;28;74487;-68
2021/04/01 03:35:05;;;;;;;;;;;15.90;34.60;;;;;;5053773;28;75191;-68
2021/04/01 03:37:30;;;;;;;;;;;15.90;34.40;;;;;;5052231;28;77809;-67
2021/04/01 03:39:56;;;;;;;;;;;15.80;34.50;;;;;;5053709;28;75097;-67
2021/04/01 03:42:22;;;;;;;;;;;15.80;34.40;;;;;;5052405;28;76678;-67
2021/04/01 03:44:48;;;;;;;;;;;15.70;34.20;;;;;;5053841;28;75058;-68
2021/04/01 03:47:13;;;;;;;;;;;15.70;34.20;;;;;;5053365;28;75167;-68
2021/04/01 03:49:39;;;;;;;;;;;15.70;34.10;;;;;;5052490;28;77205;-67
2021/04/01 03:52:05;;;;;;;;;;;15.70;34.20;;;;;;5053608;28;74912;-67
2021/04/01 03:54:31;;;;;;;;;;;15.70;34.20;;;;;;5051881;28;78202;-67
2021/04/01 03:56:58;;;;;;;;;;;15.70;34.10;;;;;;5051769;28;75213;-67
2021/04/01 03:59:28;;;;;;;;;;;15.60;34.00;;;;;;5052424;27;77931;-68
2021/04/01 04:02:22;;;;;;;;;;;15.60;34.30;;;;;;5053124;28;77081;-69
2021/04/01 04:07:31;;;;;;;;;;;15.60;34.40;;;;;;5050536;28;75156;-67
2021/04/01 04:15:22;;;;;;;;;;;15.60;34.80;;;;;;5050609;28;74986;-67
2021/04/01 04:17:51;;;;;;;;;;;15.60;34.90;;;;;;5053087;28;75179;-67
2021/04/01 04:20:18;;;;;;;;;;;15.60;34.90;;;;;;5053165;28;75267;-67
2021/04/01 04:22:44;;;;;;;;;;;15.60;34.80;;;;;;5052968;28;75040;-67
2021/04/01 04:25:11;;;;;;;;;;;15.60;34.80;;;;;;5053263;28;74442;-69
2021/04/01 04:30:12;;;;;;;;;;;15.50;34.80;;;;;;5049694;28;75024;-67
2021/04/01 04:32:37;;;;;;;;;;;15.60;35.00;;;;;;5051579;28;77072;-67
2021/04/01 04:35:03;;;;;;;;;;;15.60;34.80;;;;;;5051001;28;77584;-68
2021/04/01 04:37:29;;;;;;;;;;;15.60;34.90;;;;;;5053119;28;75138;-68
2021/04/01 04:39:54;;;;;;;;;;;15.60;34.90;;;;;;5052703;27;76136;-67
2021/04/01 04:42:20;;;;;;;;;;;15.60;34.80;;;;;;5051219;28;76507;-68
2021/04/01 04:44:46;;;;;;;;;;;15.60;34.90;;;;;;5052524;28;75065;-68
2021/04/01 04:47:11;;;;;;;;;;;15.60;35.20;;;;;;5053027;28;74395;-69
2021/04/01 04:49:37;;;;;;;;;;;15.60;35.20;;;;;;5052971;28;74463;-69
2021/04/01 04:52:03;;;;;;;;;;;15.60;35.20;;;;;;5052517;28;75726;-68
2021/04/01 04:54:29;;;;;;;;;;;15.60;35.20;;;;;;5052979;28;74430;-68
2021/04/01 04:56:55;;;;;;;;;;;15.60;35.00;;;;;;5052521;28;74526;-66
2021/04/01 05:04:43;;;;;;;;;;;15.60;35.50;;;;;;5052993;28;75164;-68
2021/04/01 05:07:09;;;;;;;;;;;15.50;35.40;;;;;;5052512;28;75747;-69
2021/04/01 05:09:35;;;;;;;;;;;15.50;35.00;;;;;;5052463;27;75601;-68
2021/04/01 05:12:00;;;;;;;;;;;15.50;34.60;;;;;;5052043;28;75223;-69
2021/04/01 05:14:26;;;;;;;;;;;15.50;34.80;;;;;;5050387;28;76213;-67
2021/04/01 05:16:52;;;;;;;;;;;15.60;34.60;;;;;;5052793;28;74493;-68
2021/04/01 05:19:18;;;;;;;;;;;15.60;34.40;;;;;;5052258;28;75096;-67
2021/04/01 05:21:51;;;;;;;;;;;15.60;34.40;;;;;;5084701;27;75985;-69
2021/04/01 05:24:19;;;;;;;;;;;15.60;34.60;;;;;;5052299;28;75674;-67
2021/04/01 05:27:08;;;;;;;;;;;15.70;34.70;;;;;;5050179;28;75685;-68
2021/04/01 05:30:20;;;;;;;;;;;15.70;34.40;;;;;;5051870;28;75216;-70
2021/04/01 05:32:20;;;;;;;;;;;15.70;34.40;;;;;;5043686;28;75323;-69
2021/04/01 05:34:45;;;;;;;;;;;15.60;34.40;;;;;;5050860;28;75235;-69
2021/04/01 05:37:11;;;;;;;;;;;15.60;34.40;;;;;;5050223;28;78156;-69
2021/04/01 05:39:38;;;;;;;;;;;15.60;34.40;;;;;;5052443;28;74379;-69
2021/04/01 05:42:04;;;;;;;;;;;15.50;34.60;;;;;;5052175;28;74463;-68
2021/04/01 05:47:06;;;;;;;;;;;15.50;34.50;;;;;;5048873;28;75170;-69
2021/04/01 06:05:48;;;;;;;;;;;15.50;34.90;;;;;;5034441;28;75124;-67
2021/04/01 06:08:17;;;;;;;;;;;15.50;34.70;;;;;;5050239;28;78378;-67
2021/04/01 06:10:43;;;;;;;;;;;15.50;34.80;;;;;;5049992;28;76552;-68
2021/04/01 06:13:13;;;;;;;;;;;15.50;34.70;;;;;;5049944;28;76648;-67
2021/04/01 06:15:39;;;;;;;;;;;15.60;34.70;;;;;;5049840;28;75759;-69
2021/04/01 06:18:10;;;;;;;;;;;15.60;34.70;;;;;;5051461;28;74471;-66
2021/04/01 06:20:37;;;;;;;;;;;15.60;34.60;;;;;;5051334;28;75148;-67
2021/04/01 06:23:03;;;;;;;;;;;15.60;34.90;;;;;;5052712;28;75264;-67
2021/04/01 06:25:33;;;;;;;;;;;15.70;34.70;;;;;;5054873;28;74445;-68
2021/04/01 06:28:00;;;;;;;;;;;15.70;34.70;;;;;;5054862;28;74489;-66
2021/04/01 06:30:35;;;;;;;;;;;15.80;34.60;;;;;;5054790;28;75009;-66
2021/04/01 06:33:04;;;;;;;;;;;15.80;34.70;;;;;;5053515;28;76121;-66
2021/04/01 06:40:38;;;;;;;;;;;15.90;34.50;;;;;;5052862;28;75081;-66
2021/04/01 06:43:08;;;;;;;;;;;15.90;34.60;;;;;;5054929;28;74522;-66
2021/04/01 06:45:35;;;;;;;;;;;15.90;34.60;;;;;;5054588;28;75092;-67
2021/04/01 06:48:01;;;;;;;;;;;15.90;34.60;;;;;;5053916;28;77054;-69
2021/04/01 06:50:33;;;;;;;;;;;15.90;34.40;;;;;;5055012;28;75112;-66
2021/04/01 06:53:12;;;;;;;;;;;15.90;34.60;;;;;;5053213;28;78154;-68
2021/04/01 06:55:50;;;;;;;;;;;16.00;34.80;;;;;;5053317;28;78112;-67
2021/04/01 06:58:32;;;;;;;;;;;16.00;34.10;;;;;;5054445;28;75083;-68
2021/04/01 07:01:05;;;;;;;;;;;16.00;34.40;;;;;;5052919;28;76927;-69
2021/04/01 07:03:45;;;;;;;;;;;16.10;34.10;;;;;;5054279;28;75120;-66
2021/04/01 07:06:20;;;;;;;;;;;16.10;34.00;;;;;;5053128;28;75523;-66
2021/04/01 07:08:50;;;;;;;;;;;16.10;34.50;;;;;;5054436;28;74880;-68
2021/04/01 07:11:34;;;;;;;;;;;16.10;34.30;;;;;;5086747;27;78065;-67
2021/04/01 07:14:14;;;;;;;;;;;16.10;34.10;;;;;;5052486;28;75369;-71
2021/04/01 07:17:04;;;;;;;;;;;16.10;34.00;;;;;;5054622;28;75018;-70
2021/04/01 07:47:22;;;;;;;;;;;16.80;33.60;;;;;;5052639;27;74868;-68
2021/04/01 07:49:50;;;;;;;;;;;16.80;33.50;;;;;;5051897;28;75486;-70
2021/04/01 07:52:26;;;;;;;;;;;16.90;33.50;;;;;;5052679;28;76673;-66
2021/04/01 07:55:33;;;;;;;;;;;17.10;32.90;;;;;;5051784;28;76359;-71
2021/04/01 07:58:07;;;;;;;;;;;17.20;32.70;;;;;;5052204;27;75202;-68
2021/04/01 08:04:07;;;;;;;;;;;17.40;32.50;;;;;;5052731;28;74670;-66
2021/04/01 08:06:16;;;;;;;;;;;17.50;32.30;;;;;;5045259;28;75969;-67
2021/04/01 08:08:45;;;;;;;;;;;17.60;32.00;;;;;;5051914;28;75461;-67
2021/04/01 08:11:13;;;;;;;;;;;17.70;32.00;;;;;;5053270;28;75094;-69
2021/04/01 08:13:41;;;;;;;;;;;17.80;32.20;;;;;;5053481;28;75404;-68
2021/04/01 08:16:10;;;;;;;;;;;17.90;31.80;;;;;;5052139;28;78424;-68
2021/04/01 08:18:40;;;;;;;;;;;18.00;31.80;;;;;;5053783;28;75436;-70
2021/04/01 08:21:11;;;;;;;;;;;18.10;31.70;;;;;;5052059;28;76338;-67
2021/04/01 08:23:43;;;;;;;;;;;18.40;32.00;;;;;;5051908;28;74787;-70
2021/04/01 08:26:38;;;;;;;;;;;18.60;31.30;;;;;;5053560;28;74459;-69
2021/04/01 08:36:54;;;;;;;;;;;18.70;31.10;;;;;;5050282;28;74869;-69
2021/04/01 08:39:21;;;;;;;;;;;18.60;31.40;;;;;;5051525;27;75647;-68
2021/04/01 08:41:46;;;;;;;;;;;18.40;31.30;;;;;;5051085;28;77578;-67
2021/04/01 08:44:18;;;;;;;;;;;18.30;31.70;;;;;;5051596;28;78195;-67
2021/04/01 08:46:52;;;;;;;;;;;18.20;31.50;;;;;;5050718;28;75459;-66
2021/04/01 08:49:23;;;;;;;;;;;18.40;31.50;;;;;;5051423;28;75675;-66
2021/04/01 08:52:07;;;;;;;;;;;18.50;31.30;;;;;;5052799;28;75698;-69
2021/04/01 08:54:43;;;;;;;;;;;18.60;31.40;;;;;;5051435;28;77493;-65
2021/04/01 08:57:18;;;;;;;;;;;18.80;31.00;;;;;;5053348;28;75120;-68
2021/04/01 08:59:48;;;;;;;;;;;19.00;30.80;;;;;;5051240;28;76306;-67
2021/04/01 09:02:18;;;;;;;;;;;19.00;30.60;;;;;;5050962;28;77310;-66
2021/04/01 09:04:51;;;;;;;;;;;19.00;30.70;;;;;;5050483;28;77491;-67
2021/04/01 09:07:29;;;;;;;;;;;19.00;30.70;;;;;;5050821;28;94834;-71
2021/04/01 09:10:06;;;;;;;;;;;19.20;30.70;;;;;;5051425;28;78311;-68
2021/04/01 09:12:40;;;;;;;;;;;19.50;30.30;;;;;;5051045;28;77885;-68
2021/04/01 09:15:18;;;;;;;;;;;19.70;30.30;;;;;;5050750;28;77305;-67
2021/04/01 09:17:44;;;;;;;;;;;19.70;30.20;;;;;;5050831;28;77701;-67
2021/04/01 09:20:11;;;;;;;;;;;19.60;30.20;;;;;;5052549;28;75498;-68
2021/04/01 09:22:42;;;;;;;;;;;19.40;30.40;;;;;;5052097;27;75360;-67
2021/04/01 09:25:08;;;;;;;;;;;19.20;30.40;;;;;;5050729;28;76355;-68
2021/04/01 09:27:43;;;;;;;;;;;19.00;30.70;;;;;;5051820;27;75078;-66
2021/04/01 09:30:09;;;;;;;;;;;19.00;30.70;;;;;;5052385;28;75720;-68
2021/04/01 09:32:36;;;;;;;;;;;19.00;30.70;;;;;;5050769;28;75354;-66
2021/04/01 09:35:03;;;;;;;;;;;18.90;31.10;;;;;;5052358;28;75243;-68
2021/04/01 09:37:28;;;;;;;;;;;18.90;31.20;;;;;;5050740;28;77585;-68
2021/04/01 09:39:55;;;;;;;;;;;18.80;31.30;;;;;;5051984;28;75741;-68
2021/04/01 09:42:21;;;;;;;;;;;18.80;31.40;;;;;;5050487;28;75414;-66
2021/04/01 09:44:49;;;;;;;;;;;18.70;31.20;;;;;;5050352;28;77391;-67
2021/04/01 09:47:24;;;;;;;;;;;18.70;31.20;;;;;;5052451;28;75228;-67
2021/04/01 09:50:07;;;;;;;;;;;18.90;30.90;;;;;;5050359;28;77605;-68
2021/04/01 09:52:33;;;;;;;;;;;19.10;30.60;;;;;;5052176;28;75254;-67
2021/04/01 09:55:00;;;;;;;;;;;19.60;30.30;;;;;;5052179;28;74660;-69
2021/04/01 09:57:27;;;;;;;;;;;20.00;29.90;;;;;;5052838;27;77595;-67
2021/04/01 10:00:08;;;;;;;;;;;20.30;29.30;;;;;;5055589;28;75826;-67
2021/04/01 10:02:34;;;;;;;;;;;20.40;29.30;;;;;;5053829;28;76175;-70
2021/04/01 10:05:04;;;;;;;;;;;20.60;29.30;;;;;;5055746;28;75539;-70
2021/04/01 10:07:36;;;;;;;;;;;20.70;29.30;;;;;;5054316;28;76577;-67
2021/04/01 10:10:04;;;;;;;;;;;20.70;29.30;;;;;;5054163;28;77504;-67
2021/04/01 10:12:33;;;;;;;;;;;20.60;29.40;;;;;;5053712;28;75714;-67
2021/04/01 10:15:02;;;;;;;;;;;20.50;28.90;;;;;;5055388;28;75362;-69
2021/04/01 10:17:28;;;;;;;;;;;20.30;29.10;;;;;;5055737;28;74475;-69
2021/04/01 10:19:54;;;;;;;;;;;20.10;29.30;;;;;;5055326;28;75191;-68
2021/04/01 10:22:24;;;;;;;;;;;20.00;29.30;;;;;;5055222;28;75140;-67
2021/04/01 10:25:12;;;;;;;;;;;19.90;29.70;;;;;;5054878;28;75365;-67
2021/04/01 10:27:44;;;;;;;;;;;19.90;29.30;;;;;;5055233;28;74488;-67
2021/04/01 10:30:10;;;;;;;;;;;19.90;29.60;;;;;;5053625;27;75433;-67
2021/04/01 10:32:49;;;;;;;;;;;19.90;29.70;;;;;;5054967;28;75176;-67
2021/04/01 10:35:16;;;;;;;;;;;20.00;29.60;;;;;;5053051;28;78147;-69
2021/04/01 10:37:45;;;;;;;;;;;20.10;29.30;;;;;;5054709;28;75170;-68
2021/04/01 10:40:12;;;;;;;;;;;20.30;29.60;;;;;;5052992;28;76387;-67
2021/04/01 10:42:39;;;;;;;;;;;20.50;29.30;;;;;;5053616;28;78381;-71
2021/04/01 10:45:07;;;;;;;;;;;20.60;28.80;;;;;;5053038;28;74491;-67
2021/04/01 10:47:55;;;;;;;;;;;20.60;29.00;;;;;;5052869;28;77573;-68
2021/04/01 10:50:22;;;;;;;;;;;20.90;29.00;;;;;;5046965;27;77225;-67
2021/04/01 10:52:48;;;;;;;;;;;21.80;28.40;;;;;;5052601;28;74706;-68
2021/04/01 10:55:14;;;;;;;;;;;22.70;27.80;;;;;;5053005;28;75453;-67
2021/04/01 10:57:40;;;;;;;;;;;23.50;26.40;;;;;;5053030;28;77737;-68
2021/04/01 11:00:16;;;;;;;;;;;24.00;25.90;;;;;;5052468;28;76761;-69
2021/04/01 11:02:48;;;;;;;;;;;24.40;25.60;;;;;;5052411;28;75597;-71
2021/04/01 11:05:20;;;;;;;;;;;24.90;25.20;;;;;;5054121;28;75109;-68
2021/04/01 11:07:52;;;;;;;;;;;25.50;24.50;;;;;;5054138;28;74838;-67
2021/04/01 11:10:25;;;;;;;;;;;26.20;24.00;;;;;;5053990;28;74437;-67
2021/04/01 11:12:59;;;;;;;;;;;26.80;23.10;;;;;;5054905;28;74522;-68
2021/04/01 11:15:35;;;;;;;;;;;27.40;22.80;;;;;;5052750;28;78218;-69
2021/04/01 11:18:09;;;;;;;;;;;28.00;22.10;;;;;;5052553;27;77312;-69
2021/04/01 11:20:36;;;;;;;;;;;28.80;21.80;;;;;;5052583;28;76518;-70
2021/04/01 11:23:05;;;;;;;;;;;29.60;20.90;;;;;;5054015;28;75217;-67
2021/04/01 11:25:31;;;;;;;;;;;30.30;20.20;;;;;;5052167;28;78114;-68
2021/04/01 11:27:56;;;;;;;;;;;31.00;19.60;;;;;;5052369;28;76386;-68
2021/04/01 11:30:38;;;;;;;;;;;31.80;19.40;;;;;;5054359;28;74476;-68
2021/04/01 11:33:04;;;;;;;;;;;32.50;18.60;;;;;;5086373;27;77344;-70
2021/04/01 11:35:30;;;;;;;;;;;33.40;18.40;;;;;;5054178;28;75471;-70
2021/04/01 11:37:56;;;;;;;;;;;34.20;17.90;;;;;;5052145;28;77542;-71
2021/04/01 11:40:21;;;;;;;;;;;35.00;17.30;;;;;;5053743;28;75205;-70
2021/04/01 11:43:01;;;;;;;;;;;35.60;16.80;;;;;;5085934;27;77539;-67
2021/04/01 11:45:34;;;;;;;;;;;36.10;16.90;;;;;;5051874;28;75455;-72
2021/04/01 11:48:01;;;;;;;;;;;37.00;16.30;;;;;;5054226;28;74520;-68
2021/04/01 11:50:27;;;;;;;;;;;37.70;15.00;;;;;;5052108;28;77775;-68
2021/04/01 11:52:54;;;;;;;;;;;37.50;15.70;;;;;;5051906;28;76347;-69
2021/04/01 11:55:20;;;;;;;;;;;37.90;15.60;;;;;;5052000;28;77458;-70
2021/04/01 11:57:46;;;;;;;;;;;38.40;15.40;;;;;;5053229;28;74568;-68
2021/04/01 12:00:19;;;;;;;;;;;38.20;15.20;;;;;;5051974;28;77298;-70
2021/04/01 12:03:00;;;;;;;;;;;38.70;15.20;;;;;;5052990;28;74966;-67
2021/04/01 12:05:28;;;;;;;;;;;39.60;14.60;;;;;;5051430;28;75402;-70
2021/04/01 12:07:53;;;;;;;;;;;40.10;14.40;;;;;;5052000;27;77090;-69
2021/04/01 12:10:19;;;;;;;;;;;40.40;14.00;;;;;;5053623;28;74448;-69
2021/04/01 12:12:51;;;;;;;;;;;40.20;13.50;;;;;;5052148;28;77249;-70
2021/04/01 12:15:27;;;;;;;;;;;40.10;14.20;;;;;;5053549;28;75772;-69
2021/04/01 12:17:54;;;;;;;;;;;39.90;14.10;;;;;;5051933;28;77192;-69
2021/04/01 12:20:21;;;;;;;;;;;40.20;14.30;;;;;;5050142;27;75450;-69
2021/04/01 12:22:46;;;;;;;;;;;39.90;14.60;;;;;;5053674;28;75139;-68
2021/04/01 12:25:14;;;;;;;;;;;38.10;14.30;;;;;;5051216;28;75422;-70
2021/04/01 12:27:47;;;;;;;;;;;35.70;15.70;;;;;;5053119;28;75042;-69
2021/04/01 12:30:19;;;;;;;;;;;33.70;17.50;;;;;;5051436;28;76673;-71
2021/04/01 12:32:47;;;;;;;;;;;32.50;18.10;;;;;;5053372;28;74413;-71
2021/04/01 12:35:15;;;;;;;;;;;31.40;18.90;;;;;;5051317;28;77699;-68
2021/04/01 12:37:43;;;;;;;;;;;30.90;19.50;;;;;;5052859;28;75022;-69
2021/04/01 12:40:10;;;;;;;;;;;30.60;19.80;;;;;;5051212;28;76585;-68
2021/04/01 12:42:37;;;;;;;;;;;30.40;20.00;;;;;;5052748;28;75176;-69
2021/04/01 12:45:13;;;;;;;;;;;30.40;19.90;;;;;;5053530;28;74510;-69
2021/04/01 12:47:38;;;;;;;;;;;30.20;19.40;;;;;;5051315;28;76588;-69
2021/04/01 12:50:04;;;;;;;;;;;30.00;20.60;;;;;;5052902;28;74500;-71
2021/04/01 12:52:40;;;;;;;;;;;31.50;19.90;;;;;;5051175;28;77336;-69
2021/04/01 12:55:06;;;;;;;;;;;33.10;18.70;;;;;;5052379;28;75209;-69
2021/04/01 12:57:38;;;;;;;;;;;34.60;17.30;;;;;;5051126;28;76330;-69
2021/04/01 13:00:04;;;;;;;;;;;34.60;17.60;;;;;;5051045;28;75426;-68
2021/04/01 13:02:30;;;;;;;;;;;34.30;17.90;;;;;;5052499;28;77006;-67
2021/04/01 13:05:01;;;;;;;;;;;33.50;18.10;;;;;;5050949;28;77937;-67
2021/04/01 13:07:31;;;;;;;;;;;32.90;18.80;;;;;;5051000;28;75961;-68
2021/04/01 13:12:41;;;;;;;;;;;32.10;19.30;;;;;;5052537;28;74648;-68
2021/04/01 13:15:07;;;;;;;;;;;31.70;18.90;;;;;;5050887;28;77576;-71
2021/04/01 13:17:33;;;;;;;;;;;31.30;19.20;;;;;;5050751;28;76922;-67
2021/04/01 13:19:58;;;;;;;;;;;31.20;19.80;;;;;;5050755;28;74666;-67
2021/04/01 13:22:31;;;;;;;;;;;31.90;19.40;;;;;;5050306;28;77714;-70
2021/04/01 13:25:15;;;;;;;;;;;32.20;18.40;;;;;;5052239;28;75320;-68
2021/04/01 13:27:43;;;;;;;;;;;31.80;18.80;;;;;;5050234;28;76374;-67
2021/04/01 13:30:10;;;;;;;;;;;31.40;19.50;;;;;;5050395;27;75152;-69
2021/04/01 13:35:31;;;;;;;;;;;30.70;19.80;;;;;;5055086;28;75036;-69
2021/04/01 13:38:04;;;;;;;;;;;31.50;18.80;;;;;;5056160;28;74357;-69
2021/04/01 13:40:30;;;;;;;;;;;31.80;18.50;;;;;;5053843;28;77143;-68
2021/04/01 13:42:58;;;;;;;;;;;32.20;17.50;;;;;;5088343;27;75386;-68
2021/04/01 13:45:25;;;;;;;;;;;32.00;17.80;;;;;;5055961;28;74933;-69
2021/04/01 13:47:55;;;;;;;;;;;32.30;17.90;;;;;;5056168;28;75575;-68
2021/04/01 13:50:22;;;;;;;;;;;33.70;17.50;;;;;;5054719;28;77288;-68
2021/04/01 13:55:28;;;;;;;;;;;33.80;16.90;;;;;;5052370;28;74429;-68
2021/04/01 14:09:04;;;;;;;;;;;34.70;16.20;;;;;;5053157;28;74808;-69
2021/04/01 14:11:30;;;;;;;;;;;33.60;16.60;;;;;;5053619;28;77311;-69
2021/04/01 14:13:56;;;;;;;;;;;32.90;17.70;;;;;;5053791;28;75706;-70
2021/04/01 14:16:21;;;;;;;;;;;33.50;17.40;;;;;;5055744;28;74566;-67
2021/04/01 14:18:51;;;;;;;;;;;35.20;16.40;;;;;;5055256;28;74425;-70
2021/04/01 14:21:18;;;;;;;;;;;36.00;15.50;;;;;;5053428;28;77331;-70
2021/04/01 14:23:45;;;;;;;;;;;35.00;16.00;;;;;;5053511;28;77700;-68
2021/04/01 14:29:03;;;;;;;;;;;32.10;17.50;;;;;;5046010;28;75122;-69
2021/04/01 14:31:29;;;;;;;;;;;31.30;17.90;;;;;;5053306;28;76385;-68
2021/04/01 14:33:55;;;;;;;;;;;30.90;18.20;;;;;;5055178;28;74465;-69
2021/04/01 14:36:23;;;;;;;;;;;30.80;18.30;;;;;;5055872;28;75621;-70
2021/04/01 14:38:49;;;;;;;;;;;30.50;18.80;;;;;;5053754;28;78133;-67
2021/04/01 14:41:26;;;;;;;;;;;30.60;18.80;;;;;;5055309;28;75283;-67
2021/04/01 14:44:03;;;;;;;;;;;30.60;18.80;;;;;;5051811;27;75816;-68
2021/04/01 14:46:29;;;;;;;;;;;30.90;18.70;;;;;;5053359;28;75404;-68
2021/04/01 14:48:58;;;;;;;;;;;31.70;18.30;;;;;;5054448;28;76103;-69
2021/04/01 14:51:23;;;;;;;;;;;32.80;17.10;;;;;;5087279;27;77801;-71
2021/04/01 14:53:53;;;;;;;;;;;33.90;16.70;;;;;;5054772;28;75677;-66
2021/04/01 14:56:19;;;;;;;;;;;35.00;16.40;;;;;;5054942;28;75139;-68
2021/04/01 14:58:46;;;;;;;;;;;35.60;16.20;;;;;;5055148;28;75704;-70
2021/04/01 15:01:13;;;;;;;;;;;36.80;15.60;;;;;;5054745;28;74493;-68
2021/04/01 15:03:40;;;;;;;;;;;37.90;14.80;;;;;;5054545;28;75803;-70
2021/04/01 15:06:08;;;;;;;;;;;38.90;14.30;;;;;;5054269;28;75421;-68
2021/04/01 15:08:34;;;;;;;;;;;39.70;14.10;;;;;;5054281;28;75877;-69
2021/04/01 15:11:04;;;;;;;;;;;39.40;14.10;;;;;;5054322;28;75239;-69
2021/04/01 15:13:29;;;;;;;;;;;39.60;13.60;;;;;;5054231;28;76806;-68
2021/04/01 15:15:55;;;;;;;;;;;39.70;13.10;;;;;;5054315;28;75861;-69
2021/04/01 15:18:24;;;;;;;;;;;38.60;14.00;;;;;;5053954;28;76532;-70
2021/04/01 15:20:50;;;;;;;;;;;38.30;13.50;;;;;;5053733;28;76426;-69
2021/04/01 15:23:15;;;;;;;;;;;38.00;14.60;;;;;;5053995;28;75296;-68
2021/04/01 15:25:41;;;;;;;;;;;38.20;13.70;;;;;;5069703;27;78546;-69
2021/04/01 15:28:07;;;;;;;;;;;37.70;14.50;;;;;;5069877;27;77887;-69
2021/04/01 15:30:33;;;;;;;;;;;37.90;14.00;;;;;;5054216;28;74457;-69
2021/04/01 15:33:00;;;;;;;;;;;38.10;14.40;;;;;;5052304;28;77979;-68
2021/04/01 15:35:25;;;;;;;;;;;38.90;14.30;;;;;;5052177;28;77597;-68
2021/04/01 15:37:51;;;;;;;;;;;40.10;13.90;;;;;;5052372;28;75306;-69
2021/04/01 15:40:17;;;;;;;;;;;40.60;13.20;;;;;;5052196;28;77214;-71
2021/04/01 15:42:42;;;;;;;;;;;39.70;13.60;;;;;;5054320;28;74449;-68
2021/04/01 15:45:10;;;;;;;;;;;38.80;13.90;;;;;;5053779;28;74458;-68
2021/04/01 15:47:36;;;;;;;;;;;37.90;14.40;;;;;;5053627;28;75173;-69
2021/04/01 15:50:03;;;;;;;;;;;37.10;14.60;;;;;;5052646;28;75485;-69
2021/04/01 15:52:29;;;;;;;;;;;37.00;14.80;;;;;;5052020;28;76514;-69
2021/04/01 15:54:55;;;;;;;;;;;36.80;15.20;;;;;;5053399;28;75148;-69
2021/04/01 15:57:20;;;;;;;;;;;37.50;14.70;;;;;;5053230;28;75816;-70
2021/04/01 15:59:46;;;;;;;;;;;37.70;14.60;;;;;;5053487;28;76167;-70
2021/04/01 16:02:11;;;;;;;;;;;38.00;14.30;;;;;;5052161;28;77849;-69
2021/04/01 16:04:37;;;;;;;;;;;38.00;14.30;;;;;;5053735;28;75239;-67
2021/04/01 16:07:03;;;;;;;;;;;37.90;14.40;;;;;;5053366;28;75103;-69